Hannibal, Ohio
Current Conditions -  °F | °C
As of 6:53 AM on Monday 22 Dec 2014 (Local Time) from KHLG Reporting Station
Clear Clear  
Wind Chill: 20°   Ceiling: Unl
Heat Index: 28°   Visibility: 8mi
Dew Point: 23°   Wind: 8mph
Humidity: 81%   Direction: 100°E
Pressure: 30.09"   Gusts: NA
Location:  39.67°N, 80.87°W
Report Text: KHLG 221153Z 10007KT 8SM CLR M02/M05 A3009 RMK AO2 SLP207 T10221050 11022 21044 56004
Loading
Personal Weather Stations






























Interactive Weather Map New forecast layout! Learn more

10-Day Weather Forecast

Advertisements
Track Severe Weather on mobile